createdAt,value
2018-10-07T00:01:01.464Z,87.66
2018-10-07T00:02:11.521Z,87.66
2018-10-07T00:03:21.620Z,87.66
2018-10-07T00:04:31.746Z,87.71
2018-10-07T00:05:41.836Z,87.66
2018-10-07T00:06:51.917Z,87.85
2018-10-07T00:08:01.717Z,87.37
2018-10-07T00:09:11.786Z,87.66
2018-10-07T00:10:21.855Z,87.46
2018-10-07T00:11:32.021Z,87.46
2018-10-07T00:12:41.818Z,87.85
2018-10-07T00:13:51.974Z,87.66
2018-10-07T00:15:02.108Z,87.56
2018-10-07T00:16:12.178Z,87.37
2018-10-07T00:17:22.248Z,87.52
2018-10-07T00:18:32.316Z,87.33
2018-10-07T00:19:42.129Z,87.81
2018-10-07T00:20:52.220Z,87.81
2018-10-07T00:22:02.233Z,88.19
2018-10-07T00:23:12.310Z,88.19
2018-10-07T00:24:22.351Z,87.42
2018-10-07T00:25:32.463Z,87.9
2018-10-07T00:26:42.542Z,87.33
2018-10-07T00:27:52.355Z,87.62
2018-10-07T00:29:02.147Z,87.42
2018-10-07T00:30:12.318Z,87.9
2018-10-07T00:31:22.142Z,87.9
2018-10-07T00:32:32.193Z,87.9
2018-10-07T00:33:42.468Z,87.42
2018-10-07T00:34:52.549Z,88
2018-10-07T00:36:03.810Z,87.9
2018-10-07T00:37:13.623Z,87.71
2018-10-07T00:38:23.691Z,87.71
2018-10-07T00:39:33.770Z,87.9
2018-10-07T00:40:43.595Z,87.52
2018-10-07T00:41:53.402Z,87.67
2018-10-07T00:43:05.947Z,87.57
2018-10-07T00:44:15.765Z,87.57
2018-10-07T00:45:25.820Z,87.48
2018-10-07T00:46:35.904Z,87.57
2018-10-07T00:47:46.039Z,87.57
2018-10-07T00:48:56.101Z,87.29
2018-10-07T00:50:07.447Z,87.57
2018-10-07T00:51:17.251Z,87.86
2018-10-07T00:52:26.790Z,87.67
2018-10-07T00:53:36.630Z,87.67
2018-10-07T00:54:46.485Z,87.48
2018-10-07T00:55:56.560Z,87.67
2018-10-07T00:57:06.851Z,87.67
2018-10-07T00:58:16.931Z,87.57
2018-10-07T00:59:27.119Z,87.67
2018-10-07T01:00:37.238Z,87.57
2018-10-07T01:01:47.319Z,87.57
2018-10-07T01:02:57.388Z,87.67
2018-10-07T01:04:07.466Z,87.67
2018-10-07T01:05:17.374Z,87.57
2018-10-07T01:06:27.435Z,87.38
2018-10-07T01:07:37.500Z,87.48
2018-10-07T01:08:47.594Z,87.38
2018-10-07T01:09:57.399Z,87.38
2018-10-07T01:11:07.498Z,87.48
2018-10-07T01:12:17.593Z,87.48
2018-10-07T01:13:27.397Z,87.38
2018-10-07T01:14:37.193Z,87.48
2018-10-07T01:15:47.010Z,87.29
2018-10-07T01:16:57.082Z,87.38
2018-10-07T01:18:07.449Z,87.38
2018-10-07T01:19:17.512Z,87.29
2018-10-07T01:20:27.611Z,87.48
2018-10-07T01:21:37.654Z,87.48
2018-10-07T01:22:47.719Z,87.48
2018-10-07T01:23:57.799Z,87.29
2018-10-07T01:25:10.069Z,87.48
2018-10-07T01:26:20.375Z,87.48
2018-10-07T01:27:33.196Z,87.29
2018-10-07T01:28:43.267Z,87.29
2018-10-07T01:29:53.368Z,87.29
2018-10-07T01:31:06.159Z,87.34
2018-10-07T01:32:16.255Z,87.48
2018-10-07T01:33:26.331Z,87.15
2018-10-07T01:34:36.370Z,87.29
2018-10-07T01:35:46.701Z,87.29
2018-10-07T01:36:56.784Z,87.34
2018-10-07T01:38:06.689Z,87.24
2018-10-07T01:39:16.761Z,87.24
2018-10-07T01:40:26.645Z,87.43
2018-10-07T01:41:36.400Z,87.24
2018-10-07T01:42:46.457Z,87.34
2018-10-07T01:44:07.420Z,87.34
2018-10-07T01:46:03.303Z,87.43
2018-10-07T01:47:13.492Z,87.34
2018-10-07T01:48:23.546Z,87.43
2018-10-07T01:49:33.716Z,87.43
2018-10-07T01:50:43.306Z,87.24
2018-10-07T01:51:52.838Z,87.24
2018-10-07T01:53:05.430Z,87.24
2018-10-07T01:54:15.650Z,87.24
2018-10-07T01:55:25.711Z,87.34
2018-10-07T01:56:35.641Z,87.24
2018-10-07T01:57:45.705Z,87.53
2018-10-07T01:58:55.969Z,87.43
2018-10-07T02:00:05.789Z,87.24
2018-10-07T02:01:15.866Z,87.62
2018-10-07T02:02:25.978Z,87.34
2018-10-07T02:03:36.139Z,87.43
2018-10-07T02:04:45.943Z,87.43
2018-10-07T02:05:56.042Z,87.34
2018-10-07T02:07:06.265Z,87.34
2018-10-07T02:08:16.437Z,87.24
2018-10-07T02:09:26.034Z,87.34
2018-10-07T02:10:35.863Z,87.24
2018-10-07T02:11:45.680Z,87.24
2018-10-07T02:12:55.755Z,87.43
2018-10-07T02:14:05.841Z,87.43
2018-10-07T02:15:15.741Z,87.43
2018-10-07T02:16:25.487Z,87.24
2018-10-07T02:17:35.049Z,87.34
2018-10-07T02:18:45.093Z,87.43
2018-10-07T02:19:55.215Z,87.62
2018-10-07T02:21:05.300Z,87.43
2018-10-07T02:22:15.423Z,87.43
2018-10-07T02:23:25.504Z,87.24
2018-10-07T02:24:35.575Z,87.43
2018-10-07T02:25:45.728Z,87.24
2018-10-07T02:26:55.788Z,87.24
2018-10-07T02:28:06.949Z,87.24
2018-10-07T02:29:17.029Z,87.24
2018-10-07T02:30:26.850Z,87.43
2018-10-07T02:31:36.987Z,87.43
2018-10-07T02:32:46.782Z,87.34
2018-10-07T02:33:56.847Z,87.24
2018-10-07T02:35:08.433Z,87.34
2018-10-07T02:36:18.192Z,87.34
2018-10-07T02:37:28.275Z,87.34
2018-10-07T02:38:38.347Z,87.34
2018-10-07T02:39:48.467Z,87.43
2018-10-07T02:40:58.548Z,87.24
2018-10-07T02:42:08.611Z,87.39
2018-10-07T02:43:18.749Z,87.19
2018-10-07T02:44:28.913Z,87.34
2018-10-07T02:45:38.951Z,87.39
2018-10-07T02:46:48.768Z,87.19
2018-10-07T02:47:59.024Z,87.34
2018-10-07T02:49:08.842Z,87.19
2018-10-07T02:50:18.926Z,87.49
2018-10-07T02:51:28.728Z,87.29
2018-10-07T02:52:38.828Z,87.29
2018-10-07T02:53:48.648Z,87.19
2018-10-07T02:54:58.774Z,87.29
2018-10-07T02:56:08.582Z,87.19
2018-10-07T02:57:18.670Z,87.39
2018-10-07T02:58:28.729Z,87.19
2018-10-07T02:59:38.834Z,87.29
2018-10-07T03:00:48.919Z,87.29
2018-10-07T03:01:58.976Z,87.19
2018-10-07T03:34:44.704Z,81.71
2018-10-07T03:35:54.776Z,82.09
2018-10-07T03:37:04.851Z,82.86
2018-10-07T03:38:15.177Z,82.96
2018-10-07T03:39:25.749Z,83.72
2018-10-07T03:40:36.101Z,84.49
2018-10-07T03:41:46.163Z,85.35
2018-10-07T03:42:56.222Z,85.45
2018-10-07T03:44:06.332Z,86.12
2018-10-07T03:45:16.167Z,86.12
2018-10-07T03:46:26.278Z,86.25
2018-10-07T03:47:36.379Z,86.93
2018-10-07T03:48:46.201Z,87.31
2018-10-07T03:49:56.298Z,86.64
2018-10-07T03:51:06.370Z,87.02
2018-10-07T03:52:16.486Z,87.12
2018-10-07T03:53:26.591Z,87.26
2018-10-07T03:54:36.694Z,86.88
2018-10-07T03:55:46.503Z,87.07
2018-10-07T03:56:56.560Z,87.07
2018-10-07T03:58:07.973Z,87.35
2018-10-07T03:59:17.842Z,87.26
2018-10-07T04:00:27.904Z,87.07
2018-10-07T04:01:37.997Z,87.45
2018-10-07T04:02:48.008Z,87.64
2018-10-07T04:03:57.802Z,87.26
2018-10-07T04:05:09.327Z,87.07
2018-10-07T04:06:19.428Z,87.16
2018-10-07T04:07:29.262Z,87.84
2018-10-07T04:08:39.348Z,87.26
2018-10-07T04:09:49.539Z,87.93
2018-10-07T04:10:59.608Z,87.93
2018-10-07T04:12:09.682Z,87.64
2018-10-07T04:13:19.744Z,87.93
2018-10-07T04:14:29.826Z,88.02
2018-10-07T04:15:39.685Z,87.35
2018-10-07T04:16:49.475Z,87.3
2018-10-07T04:17:59.588Z,87.45
2018-10-07T04:19:09.685Z,87.26
2018-10-07T04:20:19.894Z,87.16
2018-10-07T04:21:29.990Z,87.64
2018-10-07T04:22:40.316Z,87.07
2018-10-07T04:23:50.395Z,87.45
2018-10-07T04:25:02.720Z,87.26
2018-10-07T04:26:12.811Z,87.07
2018-10-07T04:27:22.868Z,87.26
2018-10-07T04:28:33.185Z,87.07
2018-10-07T04:29:43.269Z,87.35
2018-10-07T04:30:53.336Z,87.35
2018-10-07T04:32:05.284Z,87.26
2018-10-07T04:33:15.089Z,87.55
2018-10-07T04:34:24.923Z,87.07
2018-10-07T04:35:35.015Z,87.07
2018-10-07T04:36:45.106Z,87.55
2018-10-07T04:37:55.182Z,87.07
2018-10-07T04:39:05.524Z,87.07
2018-10-07T04:40:16.274Z,87.07
2018-10-07T04:41:26.469Z,87.07
2018-10-07T04:42:36.567Z,87.07
2018-10-07T04:43:46.389Z,87.07
2018-10-07T04:44:56.543Z,87.07
2018-10-07T04:46:06.654Z,87.16
2018-10-07T04:47:16.804Z,87.16
2018-10-07T04:48:26.867Z,87.26
2018-10-07T04:49:36.712Z,87.45
2018-10-07T04:50:46.836Z,87.45
2018-10-07T04:51:56.931Z,87.35
2018-10-07T04:53:06.908Z,87.16
2018-10-07T04:54:16.979Z,87.07
2018-10-07T04:55:27.048Z,87.16
2018-10-07T04:56:37.241Z,86.88
2018-10-07T04:57:47.042Z,86.88
2018-10-07T04:58:57.369Z,87.07
2018-10-07T05:00:08.578Z,87.07
2018-10-07T05:01:18.287Z,87.07
2018-10-07T05:02:28.105Z,86.88
2018-10-07T05:03:38.171Z,86.88
2018-10-07T05:04:48.700Z,87.07
2018-10-07T05:05:58.783Z,86.92
2018-10-07T05:07:09.111Z,87.21
2018-10-07T05:08:18.668Z,87.11
2018-10-07T05:09:28.735Z,87.11
2018-10-07T05:10:38.543Z,87.11
2018-10-07T05:11:48.645Z,87.3
2018-10-07T05:12:58.874Z,87.3
2018-10-07T05:14:09.006Z,87.11
2018-10-07T05:15:18.827Z,87.11
2018-10-07T05:16:28.637Z,87.11
2018-10-07T05:17:38.700Z,87.49
2018-10-07T05:18:48.243Z,87.01
2018-10-07T05:19:58.363Z,87.01
2018-10-07T05:21:08.660Z,87.3
2018-10-07T05:22:18.638Z,87.01
2018-10-07T05:23:28.706Z,87.01
2018-10-07T05:24:38.645Z,87.01
2018-10-07T05:25:48.737Z,86.63
2018-10-07T05:26:58.812Z,86.72
2018-10-07T05:28:08.631Z,86.82
2018-10-07T05:29:18.176Z,86.54
2018-10-07T05:30:28.252Z,86.82
2018-10-07T05:31:38.115Z,87.54
2018-10-07T05:32:47.919Z,86.44
2018-10-07T05:33:58.072Z,86.92
2018-10-07T05:35:10.942Z,86.96
2018-10-07T05:36:21.013Z,86.96
2018-10-07T05:37:30.892Z,87.05
2018-10-07T05:38:40.979Z,86.77
2018-10-07T05:39:51.670Z,86.77
2018-10-07T05:41:01.221Z,86.96
2018-10-07T05:42:11.330Z,86.68
2018-10-07T05:43:21.492Z,86.87
2018-10-07T05:44:31.884Z,86.87
2018-10-07T05:45:42.320Z,86.68
2018-10-07T05:46:52.444Z,86.87
2018-10-07T05:48:03.225Z,86.96
2018-10-07T05:49:13.043Z,86.87
2018-10-07T05:50:23.153Z,86.87
2018-10-07T05:51:33.245Z,86.96
2018-10-07T05:52:43.302Z,86.96
2018-10-07T05:53:53.577Z,86.87
2018-10-07T05:55:06.398Z,86.96
2018-10-07T05:56:16.478Z,86.77
2018-10-07T05:57:26.536Z,87.29
2018-10-07T05:58:36.586Z,86.81
2018-10-07T05:59:46.397Z,87.1
2018-10-07T06:00:56.208Z,86.81
2018-10-07T06:02:06.438Z,86.91
2018-10-07T06:03:16.953Z,87.1
2018-10-07T06:04:27.036Z,87.01
2018-10-07T06:05:36.861Z,86.81
2018-10-07T06:06:46.943Z,87.1
2018-10-07T06:07:56.479Z,86.81
2018-10-07T06:09:06.571Z,86.62
2018-10-07T06:10:17.195Z,87.01
2018-10-07T06:11:27.211Z,87.01
2018-10-07T06:12:37.118Z,86.62
2018-10-07T06:13:47.213Z,86.91
2018-10-07T06:14:57.355Z,86.62
2018-10-07T06:16:07.812Z,86.91
2018-10-07T06:17:17.928Z,86.81
2018-10-07T06:18:28.056Z,86.91
2018-10-07T06:19:38.180Z,87.01
2018-10-07T06:20:48.244Z,86.91
2018-10-07T06:21:58.344Z,86.91
2018-10-07T06:23:08.415Z,86.91
2018-10-07T06:24:18.545Z,86.52
2018-10-07T06:25:28.373Z,86.91
2018-10-07T06:26:38.506Z,86.52
2018-10-07T06:27:48.547Z,86.81
2018-10-07T06:28:58.851Z,86.52
2018-10-07T06:30:08.947Z,86.72
2018-10-07T06:31:18.970Z,86.33
2018-10-07T06:32:28.512Z,86.52
2018-10-07T06:33:38.611Z,86.52
2018-10-07T06:34:48.702Z,86.28
2018-10-07T06:35:58.810Z,86.09
2018-10-07T06:37:08.901Z,86.57
2018-10-07T06:38:18.973Z,86.09
2018-10-07T06:39:28.801Z,85.71
2018-10-07T06:40:38.378Z,85.71
2018-10-07T06:41:48.472Z,85.84
2018-10-07T06:42:58.291Z,86.13
2018-10-07T06:44:08.431Z,85.75
2018-10-07T06:45:18.608Z,85.55
2018-10-07T06:46:28.963Z,85.94
2018-10-07T06:47:39.061Z,85.27
2018-10-07T06:48:49.144Z,85.4
2018-10-07T06:49:58.709Z,85.5
2018-10-07T06:51:08.794Z,85.21
2018-10-07T06:52:18.846Z,85.31
2018-10-07T06:53:28.893Z,85.11
2018-10-07T06:54:38.707Z,85.54
2018-10-07T06:55:48.756Z,85.25
2018-10-07T06:56:58.855Z,84.77
2018-10-07T06:58:08.653Z,84.77
2018-10-07T06:59:18.516Z,84.58
2018-10-07T07:00:28.661Z,85.16
2018-10-07T07:01:38.739Z,84.72
2018-10-07T07:02:48.849Z,84.91
2018-10-07T07:03:58.664Z,84.81
2018-10-07T07:05:08.472Z,84.91
2018-10-07T07:06:18.377Z,85
2018-10-07T07:07:28.353Z,84.91
2018-10-07T07:08:38.158Z,84.72
2018-10-07T07:09:47.732Z,85.1
2018-10-07T07:10:57.602Z,85.3
2018-10-07T07:12:07.703Z,85.14
2018-10-07T07:13:17.496Z,85.14
2018-10-07T07:14:27.616Z,84.95
2018-10-07T07:15:37.701Z,85.05
2018-10-07T07:16:47.788Z,84.95
2018-10-07T07:17:57.605Z,85.14
2018-10-07T07:19:07.686Z,85.24
2018-10-07T07:20:17.974Z,85.14
2018-10-07T07:21:28.117Z,84.66
2018-10-07T07:22:37.989Z,84.76
2018-10-07T07:23:47.811Z,84.8
2018-10-07T07:24:57.880Z,84.9
2018-10-07T07:26:07.702Z,85.09
2018-10-07T07:27:17.802Z,85.14
2018-10-07T07:28:27.878Z,84.9
2018-10-07T07:29:37.726Z,84.8
2018-10-07T07:30:48.003Z,84.9
2018-10-07T07:31:57.908Z,84.7
2018-10-07T07:33:07.736Z,84.9
2018-10-07T07:34:17.847Z,84.9
2018-10-07T07:35:27.959Z,84.61
2018-10-07T07:36:38.042Z,84.8
2018-10-07T07:37:47.885Z,84.12
2018-10-07T07:38:57.690Z,84.42
2018-10-07T07:40:07.761Z,84.52
2018-10-07T07:41:17.857Z,84.36
2018-10-07T07:42:28.159Z,84.27
2018-10-07T07:43:38.435Z,84.27
2018-10-07T07:44:48.492Z,83.78
2018-10-07T07:45:58.304Z,83.83
2018-10-07T07:47:10.423Z,83.98
2018-10-07T07:48:20.549Z,83.92
2018-10-07T07:49:30.678Z,84.55
2018-10-07T07:50:40.770Z,84.65
2018-10-07T07:51:50.834Z,84.17
2018-10-07T07:53:00.916Z,84.07
2018-10-07T07:54:10.985Z,84.75
2018-10-07T07:55:20.816Z,84.94
2018-10-07T07:56:30.917Z,85.03
2018-10-07T07:57:41.067Z,84.52
2018-10-07T07:58:51.138Z,85.38
2018-10-07T08:00:01.240Z,85.28
2018-10-07T08:01:11.365Z,85.28
2018-10-07T08:02:21.444Z,85.67
2018-10-07T08:03:31.586Z,85.67
2018-10-07T08:04:41.253Z,85.67
2018-10-07T08:05:51.368Z,85.77
2018-10-07T08:07:01.496Z,85.86
2018-10-07T08:08:11.577Z,85.77
2018-10-07T08:09:21.682Z,85.96
2018-10-07T08:10:31.531Z,86.01
2018-10-07T08:11:41.710Z,86.01
2018-10-07T08:12:51.832Z,86.01
2018-10-07T08:14:01.720Z,86.01
2018-10-07T08:15:11.853Z,85.91
2018-10-07T08:16:21.693Z,86.01
2018-10-07T08:17:32.018Z,85.91
2018-10-07T08:18:42.364Z,86.21
2018-10-07T08:19:52.168Z,86.74
2018-10-07T08:21:02.050Z,86.65
2018-10-07T08:22:12.135Z,86.55
2018-10-07T08:23:22.333Z,86.35
2018-10-07T08:24:32.816Z,86.74
2018-10-07T08:25:42.887Z,86.74
2018-10-07T08:26:52.971Z,86.74
2018-10-07T08:28:05.650Z,86.74
2018-10-07T08:29:15.550Z,86.35
2018-10-07T08:30:25.684Z,86.65
2018-10-07T08:31:36.056Z,86.07
2018-10-07T08:32:45.872Z,86.55
2018-10-07T08:33:55.696Z,86.45
2018-10-07T08:35:05.893Z,86.55
2018-10-07T08:36:15.991Z,86.45
2018-10-07T08:37:25.834Z,86.55
2018-10-07T08:38:35.957Z,86.45
2018-10-07T08:39:46.055Z,86.41
2018-10-07T08:40:56.137Z,86.35
2018-10-07T08:42:06.220Z,86.65
2018-10-07T08:43:16.288Z,86.65
2018-10-07T08:44:26.191Z,86.07
2018-10-07T08:45:36.277Z,86.45
2018-10-07T08:46:46.401Z,86.26
2018-10-07T08:47:56.509Z,86.16
2018-10-07T08:49:06.620Z,85.97
2018-10-07T08:50:16.492Z,85.87
2018-10-07T08:51:26.635Z,86.26
2018-10-07T08:52:36.735Z,86.26
2018-10-07T08:53:46.811Z,86.26
2018-10-07T08:54:56.877Z,86.26
2018-10-07T08:56:07.193Z,85.97
2018-10-07T08:57:18.047Z,85.97
2018-10-07T08:58:27.876Z,85.97
2018-10-07T08:59:37.963Z,85.68
2018-10-07T09:00:48.048Z,85.78
2018-10-07T09:01:58.000Z,86.01
2018-10-07T09:03:07.993Z,85.63
2018-10-07T09:04:18.049Z,86.11
2018-10-07T09:05:28.152Z,86.3
2018-10-07T09:06:38.236Z,85.72
2018-10-07T09:07:48.604Z,85.72
2018-10-07T09:08:58.763Z,85.24
2018-10-07T09:10:10.855Z,84.99
2018-10-07T09:11:20.908Z,85.09
2018-10-07T09:12:30.996Z,84.9
2018-10-07T09:13:40.795Z,84.42
2018-10-07T09:14:50.882Z,84.65
2018-10-07T09:16:02.907Z,84.55
2018-10-07T09:17:13.000Z,84.31
2018-10-07T09:18:23.385Z,84.41
2018-10-07T09:19:33.446Z,83.73
2018-10-07T09:20:43.532Z,83.96
2018-10-07T09:21:53.745Z,83.29
2018-10-07T09:23:04.790Z,83.39
2018-10-07T09:24:14.930Z,83.14
2018-10-07T09:25:25.068Z,83.56
2018-10-07T09:26:35.147Z,83.37
2018-10-07T09:27:45.299Z,83.47
2018-10-07T09:28:55.391Z,82.93
2018-10-07T09:30:07.296Z,82.93
2018-10-07T09:31:17.377Z,83.26
2018-10-07T09:32:27.692Z,82.53
2018-10-07T09:33:38.093Z,82.43
2018-10-07T09:34:48.209Z,82.86
2018-10-07T09:35:58.308Z,83.15
2018-10-07T09:37:08.364Z,82.47
2018-10-07T09:38:18.229Z,82.22
2018-10-07T09:39:28.186Z,82.7
2018-10-07T09:40:38.630Z,82.22
2018-10-07T09:41:48.744Z,82.26
2018-10-07T09:42:58.887Z,81.87
2018-10-07T09:44:09.226Z,82.59
2018-10-07T09:45:19.051Z,82.59
2018-10-07T09:46:29.201Z,82.59
2018-10-07T09:47:39.278Z,81.95
2018-10-07T09:48:49.115Z,81.99
2018-10-07T09:49:59.186Z,82.28
2018-10-07T09:51:09.287Z,82.18
2018-10-07T09:52:19.725Z,82.48
2018-10-07T09:53:30.389Z,82.87
2018-10-07T09:54:40.523Z,82.57
2018-10-07T09:55:50.702Z,82.71
2018-10-07T09:57:00.984Z,82.71
2018-10-07T09:58:11.353Z,82.62
2018-10-07T09:59:21.731Z,82.9
2018-10-07T10:00:31.735Z,82.62
2018-10-07T10:01:41.852Z,82.27
2018-10-07T10:02:52.184Z,82.62
2018-10-07T10:04:02.089Z,82.56
2018-10-07T10:05:12.697Z,82.56
2018-10-07T10:06:22.847Z,82.37
2018-10-07T10:07:32.937Z,82.56
2018-10-07T10:08:43.016Z,82.02
2018-10-07T10:09:53.144Z,82.11
2018-10-07T10:11:03.487Z,81.57
2018-10-07T10:12:14.014Z,81.48
2018-10-07T10:13:24.100Z,81.51
2018-10-07T10:14:34.228Z,81.51
2018-10-07T10:15:44.321Z,81.51
2018-10-07T10:16:54.131Z,81.65
2018-10-07T10:18:03.941Z,82.14
2018-10-07T10:19:14.027Z,82.04
2018-10-07T10:20:23.873Z,81.94
2018-10-07T10:21:33.413Z,82.04
2018-10-07T10:22:43.722Z,82.04
2018-10-07T10:23:54.071Z,82.23
2018-10-07T10:25:04.180Z,82.18
2018-10-07T10:26:14.292Z,82.28
2018-10-07T10:27:24.362Z,82.67
2018-10-07T10:28:34.432Z,82.96
2018-10-07T10:29:44.311Z,82.96
2018-10-07T10:30:54.393Z,82.96
2018-10-07T10:32:04.212Z,83
2018-10-07T10:33:14.308Z,82.76
2018-10-07T10:34:24.390Z,82.67
2018-10-07T10:35:34.566Z,82.76
2018-10-07T10:36:44.842Z,83.09
2018-10-07T10:37:54.703Z,82.8
2018-10-07T10:39:06.186Z,83.25
2018-10-07T10:40:16.376Z,83
2018-10-07T10:41:26.487Z,83.09
2018-10-07T10:42:36.561Z,82.7
2018-10-07T10:43:46.379Z,83.29
2018-10-07T10:44:56.454Z,83.09
2018-10-07T10:46:06.599Z,83.19
2018-10-07T10:47:16.798Z,82.6
2018-10-07T10:48:26.639Z,83.29
2018-10-07T10:49:36.455Z,83
2018-10-07T10:50:46.546Z,83.58
2018-10-07T10:51:56.649Z,82.9
2018-10-07T10:53:06.507Z,82.9
2018-10-07T10:54:16.601Z,83.83
2018-10-07T10:55:26.693Z,83.73
2018-10-07T10:56:36.796Z,83.34
2018-10-07T10:57:46.884Z,83.44
2018-10-07T10:58:56.710Z,83.25
2018-10-07T11:00:07.034Z,83.73
2018-10-07T11:01:17.115Z,83.64
2018-10-07T11:02:26.923Z,83.73
2018-10-07T11:03:37.017Z,83.93
2018-10-07T11:04:47.117Z,84.22
2018-10-07T11:05:57.269Z,83.89
2018-10-07T11:07:07.554Z,84.05
2018-10-07T11:08:17.857Z,84.63
2018-10-07T11:09:27.980Z,84.97
2018-10-07T11:10:37.641Z,84.78
2018-10-07T11:11:47.764Z,84.97
2018-10-07T11:12:57.609Z,85.36
2018-10-07T11:14:07.686Z,85.13
2018-10-07T11:15:17.886Z,84.88
2018-10-07T11:16:28.151Z,84.55
2018-10-07T11:17:38.365Z,84
2018-10-07T11:18:48.448Z,84
2018-10-07T11:19:58.544Z,84.2
2018-10-07T11:21:08.646Z,83.81
2018-10-07T11:22:18.473Z,83.95
2018-10-07T11:23:28.591Z,84
2018-10-07T11:24:38.903Z,84.48
2018-10-07T11:25:48.987Z,84.39
2018-10-07T11:26:59.106Z,84.74
2018-10-07T11:28:09.196Z,84.64
2018-10-07T11:29:19.090Z,85.22
2018-10-07T11:30:28.909Z,85.03
2018-10-07T11:31:38.992Z,85.08
2018-10-07T11:32:49.102Z,84.89
2018-10-07T11:33:59.184Z,85.08
2018-10-07T11:35:09.323Z,85.38
2018-10-07T11:36:19.401Z,84.89
2018-10-07T11:37:29.474Z,85.08
2018-10-07T11:38:39.765Z,84.21
2018-10-07T11:39:49.852Z,83.96
2018-10-07T11:41:00.092Z,83.96
2018-10-07T11:42:10.792Z,84.1
2018-10-07T11:43:20.889Z,84
2018-10-07T11:44:31.223Z,84.2
2018-10-07T11:45:41.831Z,83.71
2018-10-07T11:46:52.498Z,83.81
2018-10-07T11:48:03.284Z,83.56
2018-10-07T11:49:13.362Z,83.36
2018-10-07T11:50:23.449Z,83.69
2018-10-07T11:51:34.018Z,83.69
2018-10-07T11:52:44.191Z,83.31
2018-10-07T11:53:54.702Z,83.79
2018-10-07T11:55:04.776Z,83.98
2018-10-07T11:56:14.709Z,83.98
2018-10-07T11:57:24.835Z,84.23
2018-10-07T11:58:35.150Z,83.85
2018-10-07T11:59:45.275Z,83.91
2018-10-07T12:00:55.380Z,84.39
2018-10-07T12:02:05.766Z,84.97
2018-10-07T12:03:15.890Z,84.97
2018-10-07T12:04:25.702Z,84.88
2018-10-07T12:05:35.787Z,84.78
2018-10-07T12:06:45.908Z,84.2
2018-10-07T12:07:55.999Z,84.39
2018-10-07T12:09:06.090Z,84.2
2018-10-07T12:10:16.496Z,83.81
2018-10-07T12:11:26.652Z,84.23
2018-10-07T12:12:36.498Z,84.23
2018-10-07T12:13:46.608Z,83.79
2018-10-07T12:14:56.688Z,83.83
2018-10-07T12:16:06.589Z,82.96
2018-10-07T12:17:16.187Z,83.25
2018-10-07T12:18:26.050Z,82.6
2018-10-07T12:19:35.921Z,82.94
2018-10-07T12:20:46.091Z,83.23
2018-10-07T12:21:56.276Z,83.23
2018-10-07T12:23:06.352Z,83.14
2018-10-07T12:24:16.438Z,83.92
2018-10-07T12:25:26.277Z,83.58
2018-10-07T12:26:36.152Z,83.87
2018-10-07T12:27:46.302Z,84.17
2018-10-07T12:28:56.541Z,84.32
2018-10-07T12:30:07.324Z,84.12
2018-10-07T12:31:17.387Z,84.12
2018-10-07T12:32:27.504Z,84.32
2018-10-07T12:33:37.585Z,83.93
2018-10-07T12:34:47.680Z,84.67
2018-10-07T12:35:57.835Z,84.77
2018-10-07T12:37:07.992Z,84.38
2018-10-07T12:38:17.852Z,84.67
2018-10-07T12:39:27.695Z,84.47
2018-10-07T12:40:38.003Z,84.38
2018-10-07T12:41:47.800Z,85.06
2018-10-07T12:42:57.871Z,84.63
2018-10-07T12:44:08.000Z,85.21
2018-10-07T12:45:17.607Z,85.11
2018-10-07T12:46:27.448Z,85.11
2018-10-07T12:47:37.290Z,85.02
2018-10-07T12:48:46.861Z,85.21
2018-10-07T12:49:56.938Z,85.11
2018-10-07T12:51:09.325Z,85.31
2018-10-07T12:52:18.888Z,84.82
2018-10-07T12:53:28.781Z,84.82
2018-10-07T12:54:39.072Z,85.02
2018-10-07T12:55:49.156Z,85.02
2018-10-07T12:56:59.300Z,84.92
2018-10-07T12:58:09.510Z,84.53
2018-10-07T12:59:19.599Z,85.02
2018-10-07T13:00:29.689Z,84.92
2018-10-07T13:01:39.543Z,84.43
2018-10-07T13:02:49.419Z,84.97
2018-10-07T13:03:59.528Z,85.27
2018-10-07T13:05:09.619Z,85.27
2018-10-07T13:06:19.890Z,85.17
2018-10-07T13:07:29.733Z,84.88
2018-10-07T13:08:39.924Z,84.88
2018-10-07T13:09:49.998Z,85.03
2018-10-07T13:11:00.100Z,85.03
2018-10-07T13:12:10.864Z,85.13
2018-10-07T13:13:21.202Z,85.03
2018-10-07T13:14:31.128Z,85.13
2018-10-07T13:15:40.961Z,84.93
2018-10-07T13:16:51.052Z,84.83
2018-10-07T13:18:01.158Z,84.89
2018-10-07T13:19:11.390Z,85.38
2018-10-07T13:20:22.158Z,85.08
2018-10-07T13:21:32.304Z,85.22
2018-10-07T13:22:42.169Z,85.22
2018-10-07T13:23:52.282Z,85.22
2018-10-07T13:25:02.276Z,85.03
2018-10-07T13:26:12.150Z,84.74
2018-10-07T13:27:22.276Z,84.99
2018-10-07T13:28:31.919Z,85.18
2018-10-07T13:29:42.046Z,84.99
2018-10-07T13:30:52.162Z,85.08
2018-10-07T13:32:02.060Z,85.08
2018-10-07T13:33:12.141Z,85.38
2018-10-07T13:34:22.007Z,85.38
2018-10-07T13:35:32.157Z,85.28
2018-10-07T13:36:42.268Z,84.99
2018-10-07T13:37:52.171Z,85.08
2018-10-07T13:39:02.257Z,84.94
2018-10-07T13:40:12.352Z,84.99
2018-10-07T13:41:22.420Z,85.14
2018-10-07T13:42:32.260Z,84.94
2018-10-07T13:43:41.676Z,84.94
2018-10-07T13:44:51.779Z,85.14
2018-10-07T13:46:03.255Z,84.66
2018-10-07T13:47:13.349Z,85.04
2018-10-07T13:48:23.456Z,84.75
2018-10-07T13:49:33.578Z,84.75
2018-10-07T13:50:43.399Z,84.61
2018-10-07T13:51:53.501Z,85.43
2018-10-07T13:53:03.617Z,85.1
2018-10-07T13:54:13.783Z,85.29
2018-10-07T13:55:23.885Z,85
2018-10-07T13:56:33.969Z,85.19
2018-10-07T13:57:43.821Z,85.1
2018-10-07T13:58:53.930Z,85.1
2018-10-07T14:00:05.665Z,85.1
2018-10-07T14:01:15.813Z,85.1
2018-10-07T14:02:25.904Z,85.49
2018-10-07T14:03:35.984Z,85.49
2018-10-07T14:04:46.282Z,85.68
2018-10-07T14:05:56.358Z,85.49
2018-10-07T14:07:06.507Z,85.35
2018-10-07T14:08:16.604Z,85.44
2018-10-07T14:09:26.512Z,85.35
2018-10-07T14:10:36.625Z,85.25
2018-10-07T14:11:46.731Z,85.35
2018-10-07T14:12:56.885Z,85.06
2018-10-07T14:14:06.722Z,85.35
2018-10-07T14:15:16.825Z,85.4
2018-10-07T14:16:26.660Z,85.6
2018-10-07T14:17:36.251Z,85.79
2018-10-07T14:18:46.379Z,85.89
2018-10-07T14:19:56.536Z,85.99
2018-10-07T14:21:06.653Z,86.18
2018-10-07T14:22:16.763Z,85.99
2018-10-07T14:23:26.883Z,85.99
2018-10-07T14:24:36.783Z,85.99
2018-10-07T14:25:46.637Z,85.89
2018-10-07T14:26:56.472Z,86.13
2018-10-07T14:28:06.617Z,86.23
2018-10-07T14:29:16.699Z,86.04
2018-10-07T14:30:27.013Z,86.23
2018-10-07T14:31:37.125Z,86.23
2018-10-07T14:32:47.454Z,86.23
2018-10-07T14:33:57.536Z,86.33
2018-10-07T14:35:07.664Z,86.38
2018-10-07T14:36:18.175Z,86.38
2018-10-07T14:37:28.009Z,86.58
2018-10-07T14:38:37.801Z,86.38
2018-10-07T14:39:47.714Z,86.19
2018-10-07T14:40:57.851Z,86.29
2018-10-07T14:42:07.995Z,86.29
2018-10-07T14:43:17.857Z,86.29
2018-10-07T14:44:27.958Z,86.29
2018-10-07T14:45:37.786Z,86.48
2018-10-07T14:46:47.869Z,86.68
2018-10-07T14:47:58.023Z,86.54
2018-10-07T14:49:10.807Z,86.54
2018-10-07T14:50:21.244Z,86.54
2018-10-07T14:51:31.358Z,86.54
2018-10-07T14:52:41.447Z,86.59
2018-10-07T14:53:51.647Z,86.3
2018-10-07T14:55:01.940Z,86.3
2018-10-07T14:56:12.049Z,86.3
2018-10-07T14:57:22.184Z,86.69
2018-10-07T14:58:32.287Z,86.49
2018-10-07T14:59:42.426Z,86.59
2018-10-07T15:00:52.561Z,86.98
2018-10-07T15:02:03.012Z,86.98
2018-10-07T15:03:13.208Z,86.49
2018-10-07T15:04:23.313Z,86.65
2018-10-07T15:05:33.515Z,87.03
2018-10-07T15:06:43.679Z,86.93
2018-10-07T15:07:53.746Z,86.93
2018-10-07T15:09:05.647Z,87.13
2018-10-07T15:10:16.045Z,86.93
2018-10-07T15:11:26.136Z,86.83
2018-10-07T15:12:36.214Z,86.83
2018-10-07T15:13:46.032Z,86.99
2018-10-07T15:14:56.123Z,86.69
2018-10-07T15:16:06.533Z,86.79
2018-10-07T15:17:16.495Z,87.18
2018-10-07T15:18:26.322Z,87.18
2018-10-07T15:19:36.196Z,87.13
2018-10-07T15:20:46.313Z,87.52
2018-10-07T15:21:56.399Z,87.33
2018-10-07T15:23:06.484Z,87.33
2018-10-07T15:24:16.606Z,87.43
2018-10-07T15:25:26.669Z,87.38
2018-10-07T15:26:36.803Z,87.33
2018-10-07T15:27:46.761Z,87.38
2018-10-07T15:28:56.971Z,87.48
2018-10-07T15:30:07.053Z,87.48
2018-10-07T15:31:17.163Z,87.48
2018-10-07T15:32:27.009Z,87.19
2018-10-07T15:33:37.094Z,87.29
2018-10-07T15:34:47.265Z,87.15
2018-10-07T15:35:57.353Z,87.63
2018-10-07T15:37:07.456Z,87.24
2018-10-07T15:38:17.552Z,87.53
2018-10-07T15:39:27.643Z,87.53